createdAt,value
2023-03-22T00:00:59.261Z,9.50
2023-03-22T00:03:45.453Z,8.37
2023-03-22T00:06:32.960Z,8.40
2023-03-22T00:09:18.872Z,8.27
2023-03-22T00:12:05.013Z,8.93
2023-03-22T00:14:50.563Z,9.47
2023-03-22T00:17:36.635Z,10.83
2023-03-22T00:20:25.804Z,9.47
2023-03-22T00:23:11.126Z,9.10
2023-03-22T00:25:59.225Z,10.50
2023-03-22T00:28:44.670Z,9.70
2023-03-22T00:31:29.992Z,10.70
2023-03-22T00:34:15.326Z,8.67
2023-03-22T00:37:00.679Z,10.80
2023-03-22T00:39:46.487Z,9.83
2023-03-22T00:42:32.102Z,10.40
2023-03-22T00:45:17.409Z,9.60
2023-03-22T00:48:07.530Z,11.03
2023-03-22T00:50:52.639Z,9.90
2023-03-22T00:53:41.853Z,9.70
2023-03-22T00:56:30.184Z,9.10
2023-03-22T00:59:16.742Z,9.40
2023-03-22T01:02:04.172Z,9.83
2023-03-22T01:04:49.929Z,9.90
2023-03-22T01:07:38.209Z,9.70
2023-03-22T01:10:26.292Z,9.70
2023-03-22T01:13:12.960Z,11.27
2023-03-22T01:16:00.981Z,8.73
2023-03-22T01:18:48.637Z,8.60
2023-03-22T01:21:34.122Z,8.67
2023-03-22T01:24:20.204Z,8.83
2023-03-22T01:27:05.882Z,10.10
2023-03-22T01:29:51.141Z,9.10
2023-03-22T01:32:37.484Z,9.60
2023-03-22T01:35:25.294Z,10.17
2023-03-22T01:38:10.827Z,9.80
2023-03-22T01:40:57.141Z,10.40
2023-03-22T01:43:42.781Z,15.87
2023-03-22T01:46:28.867Z,9.73
2023-03-22T01:49:19.126Z,8.83
2023-03-22T01:52:10.867Z,9.87
2023-03-22T01:54:57.105Z,9.00
2023-03-22T01:57:43.811Z,10.43
2023-03-22T02:00:29.610Z,8.17
2023-03-22T02:03:17.872Z,9.30
2023-03-22T02:06:03.536Z,9.30
2023-03-22T02:08:52.619Z,8.90
2023-03-22T02:11:44.223Z,9.37
2023-03-22T02:14:47.709Z,8.67
2023-03-22T02:17:32.989Z,9.60
2023-03-22T02:20:21.487Z,8.90
2023-03-22T02:23:39.632Z,9.80
2023-03-22T02:26:44.059Z,9.20
2023-03-22T02:29:45.115Z,8.87
2023-03-22T02:33:01.554Z,9.97
2023-03-22T02:36:05.972Z,8.73
2023-03-22T02:39:14.337Z,10.07
2023-03-22T02:42:17.801Z,9.80
2023-03-22T02:45:33.802Z,8.60
2023-03-22T02:48:44.302Z,10.13
2023-03-22T02:51:43.890Z,9.23
2023-03-22T02:54:46.884Z,9.33
2023-03-22T02:57:49.454Z,9.00
2023-03-22T03:00:36.723Z,9.73
2023-03-22T03:03:29.311Z,9.23
2023-03-22T03:06:19.002Z,9.33
2023-03-22T03:09:05.425Z,10.67
2023-03-22T03:11:53.134Z,8.80
2023-03-22T03:14:38.448Z,9.97
2023-03-22T03:17:30.058Z,9.83
2023-03-22T03:20:34.425Z,10.13
2023-03-22T03:23:33.156Z,10.63
2023-03-22T03:26:36.901Z,9.50
2023-03-22T03:29:59.763Z,9.80
2023-03-22T03:32:47.482Z,10.07
2023-03-22T03:35:39.391Z,9.20
2023-03-22T03:38:29.208Z,10.80
2023-03-22T03:41:17.482Z,9.07
2023-03-22T03:44:04.234Z,10.73
2023-03-22T03:46:51.688Z,9.57
2023-03-22T03:49:37.594Z,9.10
2023-03-22T03:52:24.577Z,9.57
2023-03-22T03:55:12.356Z,10.50
2023-03-22T03:58:00.710Z,10.60
2023-03-22T04:00:49.373Z,10.03
2023-03-22T04:03:35.677Z,8.47
2023-03-22T04:06:21.148Z,10.20
2023-03-22T04:09:06.369Z,9.40
2023-03-22T04:11:55.161Z,10.27
2023-03-22T04:14:41.706Z,9.77
2023-03-22T04:17:29.489Z,9.23
2023-03-22T04:20:15.268Z,8.80
2023-03-22T04:23:02.676Z,9.97
2023-03-22T04:25:50.920Z,10.07
2023-03-22T04:28:36.199Z,8.93
2023-03-22T04:31:21.763Z,8.80
2023-03-22T04:34:09.484Z,8.50
2023-03-22T04:36:54.800Z,8.57
2023-03-22T04:39:40.510Z,8.20
2023-03-22T04:42:28.358Z,8.93
2023-03-22T04:45:14.312Z,8.60
2023-03-22T04:48:00.740Z,8.00
2023-03-22T04:50:48.299Z,8.40
2023-03-22T04:53:38.763Z,8.77
2023-03-22T04:56:24.704Z,8.57
2023-03-22T04:59:10.886Z,8.17
2023-03-22T05:01:56.476Z,7.60
2023-03-22T05:04:44.201Z,8.77
2023-03-22T05:07:31.804Z,8.23
2023-03-22T05:10:17.093Z,8.93
2023-03-22T05:13:04.440Z,8.43
2023-03-22T05:15:50.712Z,8.90
2023-03-22T05:18:37.971Z,8.73
2023-03-22T05:21:36.933Z,8.60
2023-03-22T05:24:22.285Z,8.80
2023-03-22T05:27:08.467Z,8.23
2023-03-22T05:29:54.835Z,9.17
2023-03-22T05:32:43.924Z,8.60
2023-03-22T05:35:34.728Z,9.53
2023-03-22T05:38:22.822Z,9.77
2023-03-22T05:41:08.564Z,8.10
2023-03-22T05:43:53.906Z,8.50
2023-03-22T05:46:41.802Z,9.63
2023-03-22T05:49:27.648Z,9.00
2023-03-22T05:52:13.138Z,9.17
2023-03-22T05:55:01.200Z,8.63
2023-03-22T05:57:53.887Z,8.57
2023-03-22T06:00:39.406Z,8.10
2023-03-22T06:03:24.977Z,9.33
2023-03-22T06:06:10.937Z,10.50
2023-03-22T06:09:06.986Z,8.20
2023-03-22T06:11:59.620Z,8.43
2023-03-22T06:14:45.349Z,9.03
2023-03-22T06:17:32.953Z,9.07
2023-03-22T06:20:20.597Z,9.37
2023-03-22T06:23:09.105Z,8.43
2023-03-22T06:25:56.993Z,10.40
2023-03-22T06:28:42.398Z,8.60
2023-03-22T06:31:27.948Z,10.30
2023-03-22T06:34:13.954Z,9.33
2023-03-22T06:36:59.648Z,8.93
2023-03-22T06:39:44.887Z,9.57
2023-03-22T06:42:33.808Z,8.47
2023-03-22T06:45:21.167Z,9.23
2023-03-22T06:48:10.347Z,9.77
2023-03-22T06:50:55.975Z,9.17
2023-03-22T06:53:43.629Z,8.60
2023-03-22T06:56:29.005Z,8.17
2023-03-22T06:59:14.271Z,8.37
2023-03-22T07:01:59.876Z,8.60
2023-03-22T07:04:48.532Z,7.27
2023-03-22T07:07:33.893Z,8.20
2023-03-22T07:10:19.235Z,9.13
2023-03-22T07:13:06.602Z,8.47
2023-03-22T07:15:56.784Z,8.50
2023-03-22T07:18:48.256Z,8.60
2023-03-22T07:21:33.439Z,9.27
2023-03-22T07:24:19.065Z,8.47
2023-03-22T07:27:04.334Z,8.93
2023-03-22T07:29:49.873Z,7.33
2023-03-22T07:32:35.429Z,7.30
2023-03-22T07:35:25.522Z,7.80
2023-03-22T07:38:13.097Z,9.00
2023-03-22T07:40:58.812Z,7.20
2023-03-22T07:43:55.246Z,9.37
2023-03-22T07:46:41.961Z,6.60
2023-03-22T07:49:31.257Z,7.63
2023-03-22T07:52:18.624Z,7.90
2023-03-22T07:55:04.616Z,6.83
2023-03-22T07:57:49.949Z,7.27
2023-03-22T08:00:35.653Z,7.47
2023-03-22T08:03:22.205Z,5.93
2023-03-22T08:09:14.131Z,7.10
2023-03-22T08:11:59.457Z,7.47
2023-03-22T08:14:50.885Z,6.70
2023-03-22T08:17:36.688Z,6.87
2023-03-22T08:20:26.106Z,6.20
2023-03-22T08:23:16.176Z,7.30
2023-03-22T08:26:04.148Z,6.10
2023-03-22T08:28:49.444Z,6.40
2023-03-22T08:31:37.447Z,6.53
2023-03-22T08:34:23.110Z,6.80
2023-03-22T08:37:10.622Z,5.73
2023-03-22T08:39:56.807Z,5.97
2023-03-22T08:42:42.183Z,6.73
2023-03-22T08:45:28.780Z,6.37
2023-03-22T08:48:14.206Z,4.63
2023-03-22T08:51:01.052Z,5.83
2023-03-22T08:53:47.871Z,5.20
2023-03-22T08:56:38.113Z,5.60
2023-03-22T08:59:24.117Z,5.50
2023-03-22T09:02:10.327Z,6.30
2023-03-22T09:04:58.448Z,5.50
2023-03-22T09:07:43.910Z,6.07
2023-03-22T09:10:30.038Z,5.93
2023-03-22T09:13:16.903Z,5.30
2023-03-22T09:16:02.843Z,5.50
2023-03-22T09:18:48.178Z,5.53
2023-03-22T09:21:33.690Z,5.13
2023-03-22T09:24:21.945Z,5.37
2023-03-22T09:27:07.310Z,5.90
2023-03-22T09:29:55.552Z,5.23
2023-03-22T09:32:41.496Z,5.23
2023-03-22T09:35:26.872Z,5.63
2023-03-22T09:38:12.611Z,5.10
2023-03-22T09:41:21.270Z,4.80
2023-03-22T09:44:12.556Z,5.27
2023-03-22T09:47:00.447Z,5.13
2023-03-22T09:49:56.800Z,4.50
2023-03-22T09:52:44.119Z,5.63
2023-03-22T09:55:52.633Z,4.77
2023-03-22T09:58:50.438Z,4.90
2023-03-22T10:01:52.105Z,5.73
2023-03-22T10:04:57.928Z,5.30
2023-03-22T10:08:14.450Z,4.13
2023-03-22T10:11:01.329Z,4.23
2023-03-22T10:14:04.506Z,4.37
2023-03-22T10:16:55.346Z,4.40
2023-03-22T10:19:47.728Z,4.80
2023-03-22T10:22:38.178Z,4.90
2023-03-22T10:25:35.504Z,4.13
2023-03-22T10:28:25.024Z,4.67
2023-03-22T10:31:15.749Z,5.13
2023-03-22T10:34:28.092Z,4.00
2023-03-22T10:37:17.838Z,4.60
2023-03-22T10:40:08.414Z,4.30
2023-03-22T10:43:03.534Z,4.50
2023-03-22T10:45:53.933Z,4.70
2023-03-22T10:48:44.154Z,4.13
2023-03-22T10:51:40.859Z,3.90
2023-03-22T10:54:26.685Z,4.97
2023-03-22T10:57:12.351Z,4.40
2023-03-22T10:59:59.168Z,3.63
2023-03-22T11:02:54.227Z,3.97
2023-03-22T11:05:40.052Z,3.37
2023-03-22T11:08:25.567Z,3.40
2023-03-22T11:11:35.449Z,3.30
2023-03-22T11:14:28.500Z,3.27
2023-03-22T11:17:19.929Z,3.20
2023-03-22T11:20:10.447Z,3.00
2023-03-22T11:22:59.815Z,2.97
2023-03-22T11:25:47.802Z,2.70
2023-03-22T11:28:45.303Z,3.10
2023-03-22T11:31:50.457Z,3.53
2023-03-22T11:34:36.636Z,3.07
2023-03-22T11:37:25.120Z,3.97
2023-03-22T11:40:34.491Z,3.10
2023-03-22T11:43:44.066Z,3.07
2023-03-22T11:46:30.923Z,2.97
2023-03-22T11:49:20.831Z,2.90
2023-03-22T11:52:23.156Z,2.30
2023-03-22T11:55:15.523Z,2.23
2023-03-22T11:58:03.977Z,2.10
2023-03-22T12:00:57.378Z,2.10
2023-03-22T12:03:46.025Z,2.30
2023-03-22T12:06:39.518Z,2.27
2023-03-22T12:09:43.529Z,2.97
2023-03-22T12:12:42.543Z,2.33
2023-03-22T12:15:58.928Z,2.47
2023-03-22T12:18:57.886Z,1.93
2023-03-22T12:21:45.214Z,3.50
2023-03-22T12:24:34.905Z,2.60
2023-03-22T12:27:29.682Z,2.77
2023-03-22T12:30:20.879Z,3.20
2023-03-22T12:33:31.022Z,2.70
2023-03-22T12:36:47.524Z,2.33
2023-03-22T12:39:42.997Z,2.73
2023-03-22T12:42:50.912Z,2.57
2023-03-22T12:45:42.970Z,3.20
2023-03-22T12:48:47.222Z,2.87
2023-03-22T12:51:33.022Z,2.60
2023-03-22T12:54:23.016Z,3.03
2023-03-22T12:57:09.590Z,2.23
2023-03-22T13:00:00.377Z,2.03
2023-03-22T13:03:18.657Z,2.63
2023-03-22T13:06:28.137Z,1.80
2023-03-22T13:09:21.703Z,1.50
2023-03-22T13:12:16.709Z,1.73
2023-03-22T13:15:28.537Z,1.83
2023-03-22T13:18:30.120Z,2.40
2023-03-22T13:21:24.629Z,1.23
2023-03-22T13:24:12.502Z,1.10
2023-03-22T13:26:59.366Z,1.10
2023-03-22T13:29:54.079Z,1.90
2023-03-22T13:32:56.034Z,1.23
2023-03-22T13:35:42.175Z,1.70
2023-03-22T13:38:34.461Z,1.40
2023-03-22T13:41:32.424Z,1.47
2023-03-22T13:44:36.947Z,1.53
2023-03-22T13:47:36.533Z,1.50
2023-03-22T13:50:29.808Z,1.30
2023-03-22T13:53:30.583Z,1.33
2023-03-22T13:56:34.063Z,1.30
2023-03-22T13:59:19.706Z,1.83
2023-03-22T14:02:22.260Z,1.50
2023-03-22T14:05:21.285Z,1.60
2023-03-22T14:08:18.436Z,1.93
2023-03-22T14:11:26.197Z,1.80
2023-03-22T14:14:38.863Z,1.93
2023-03-22T14:17:59.375Z,1.97
2023-03-22T14:20:48.078Z,1.80
